Time;durP1;ratioP1;P1;durP2;ratioP2;P2;SDS_P1;SDS_P2;PMS_P1;PMS_P2;Temp;Humidity;BMP_temperature;BMP_pressure;BME280_temperature;BME280_humidity;BME280_pressure;Samples;Min_cycle;Max_cycle;Signal;HPM_P1;HPM_P2
2022/09/16 00:00:09;;;;;;;4.30;3.90;;;14.00;99.90;;;;;;5014073;28;20842;-67
2022/09/16 00:02:35;;;;;;;4.70;3.37;;;14.00;99.90;;;;;;5013395;28;20517;-67
2022/09/16 00:05:02;;;;;;;3.80;3.50;;;14.00;99.90;;;;;;5013802;28;20953;-67
2022/09/16 00:07:30;;;;;;;5.37;3.70;;;14.00;99.90;;;;;;5013804;28;20472;-67
2022/09/16 00:09:57;;;;;;;4.03;3.73;;;14.00;99.90;;;;;;5013364;28;20472;-67
2022/09/16 00:12:24;;;;;;;4.13;3.40;;;14.00;99.90;;;;;;5013004;28;20462;-67
2022/09/16 00:14:52;;;;;;;5.20;3.90;;;14.00;99.90;;;;;;5013748;28;20880;-67
2022/09/16 00:17:19;;;;;;;4.00;3.60;;;14.00;99.90;;;;;;5013665;28;20493;-67
2022/09/16 00:19:45;;;;;;;3.70;3.40;;;14.00;99.90;;;;;;5013825;28;20465;-67
2022/09/16 00:22:12;;;;;;;3.90;3.60;;;14.00;99.90;;;;;;5012744;28;20468;-67
2022/09/16 00:24:40;;;;;;;3.73;3.33;;;14.00;99.90;;;;;;5013864;28;20866;-67
2022/09/16 00:27:07;;;;;;;4.03;3.63;;;14.10;99.90;;;;;;5013331;28;20468;-67
2022/09/16 00:29:34;;;;;;;4.30;3.30;;;14.10;99.90;;;;;;5013369;28;20466;-67
2022/09/16 00:32:01;;;;;;;4.73;4.13;;;14.10;99.90;;;;;;5012968;28;20462;-67
2022/09/16 00:34:27;;;;;;;3.73;3.03;;;14.10;99.90;;;;;;5013325;28;21017;-67
2022/09/16 00:36:54;;;;;;;3.43;3.03;;;14.10;99.90;;;;;;5013518;28;20497;-67
2022/09/16 00:39:21;;;;;;;4.30;3.40;;;14.10;99.90;;;;;;5013035;28;20477;-67
2022/09/16 00:41:49;;;;;;;5.90;3.80;;;14.10;99.90;;;;;;5012951;28;20473;-67
2022/09/16 00:44:53;;;;;;;3.47;3.17;;;14.10;99.90;;;;;;5012929;28;20493;-67
2022/09/16 00:47:23;;;;;;;4.57;3.30;;;14.10;99.90;;;;;;5013166;28;20453;-67
2022/09/16 00:49:52;;;;;;;3.60;3.10;;;14.10;99.90;;;;;;5013072;28;20821;-67
2022/09/16 00:52:19;;;;;;;3.77;3.33;;;14.10;99.90;;;;;;5012480;28;20469;-66
2022/09/16 00:54:46;;;;;;;3.60;3.30;;;14.10;99.90;;;;;;5013204;28;20473;-67
2022/09/16 00:57:15;;;;;;;3.40;3.07;;;14.10;99.90;;;;;;5012630;28;20916;-66
2022/09/16 00:59:47;;;;;;;3.30;3.00;;;14.10;99.90;;;;;;5013093;28;20879;-67
2022/09/16 01:02:17;;;;;;;3.07;2.77;;;14.10;99.90;;;;;;5011993;28;20974;-67
2022/09/16 01:04:50;;;;;;;5.90;3.57;;;14.00;99.90;;;;;;5012946;28;20466;-67
2022/09/16 01:07:18;;;;;;;3.80;2.90;;;14.00;99.90;;;;;;5012464;28;20977;-67
2022/09/16 01:09:45;;;;;;;3.67;3.37;;;14.10;99.90;;;;;;5012780;28;20470;-67
2022/09/16 01:12:11;;;;;;;3.43;3.10;;;14.00;99.90;;;;;;5012260;28;20556;-67
2022/09/16 01:14:55;;;;;;;3.70;2.83;;;14.10;99.90;;;;;;5012535;28;20961;-67
2022/09/16 01:17:51;;;;;;;3.10;2.80;;;14.10;99.90;;;;;;5012670;28;20485;-67
2022/09/16 01:20:56;;;;;;;5.17;3.00;;;14.10;99.90;;;;;;4999624;28;20505;-67
2022/09/16 01:23:58;;;;;;;3.47;2.83;;;14.10;99.90;;;;;;5011870;28;20493;-67
2022/09/16 01:26:50;;;;;;;3.03;2.73;;;14.10;99.90;;;;;;5012128;28;20461;-66
2022/09/16 01:29:33;;;;;;;3.40;2.90;;;14.10;99.90;;;;;;5012322;28;20473;-67
2022/09/16 01:32:07;;;;;;;3.90;3.30;;;14.00;99.90;;;;;;5011603;28;20541;-67
2022/09/16 01:34:44;;;;;;;3.47;3.17;;;14.00;99.90;;;;;;5012199;28;20481;-67
2022/09/16 01:37:19;;;;;;;6.90;3.50;;;14.00;99.90;;;;;;5011918;28;20876;-67
2022/09/16 01:39:55;;;;;;;3.80;3.40;;;14.00;99.90;;;;;;5012359;28;20457;-66
2022/09/16 01:42:31;;;;;;;5.53;3.37;;;14.00;99.90;;;;;;5011235;28;20469;-67
2022/09/16 01:45:04;;;;;;;6.27;3.53;;;13.90;99.90;;;;;;5012149;28;20465;-67
2022/09/16 01:47:41;;;;;;;3.53;2.83;;;14.00;99.90;;;;;;5012011;28;20461;-67
2022/09/16 01:50:17;;;;;;;3.43;3.13;;;13.90;99.90;;;;;;5011788;28;20458;-67
2022/09/16 01:52:54;;;;;;;3.00;2.70;;;13.90;99.90;;;;;;5011484;28;20493;-67
2022/09/16 01:55:28;;;;;;;3.33;3.03;;;13.80;99.90;;;;;;5011543;28;20472;-66
2022/09/16 01:57:59;;;;;;;3.93;3.53;;;13.80;99.90;;;;;;5011961;28;20485;-67
2022/09/16 02:00:26;;;;;;;3.63;3.33;;;13.80;99.90;;;;;;5011471;28;20527;-67
2022/09/16 02:02:59;;;;;;;4.43;4.03;;;13.80;99.90;;;;;;5011101;28;20486;-67
2022/09/16 02:05:30;;;;;;;3.43;3.13;;;13.70;99.90;;;;;;5011186;28;20462;-67
2022/09/16 02:08:01;;;;;;;3.93;3.30;;;13.70;99.90;;;;;;5011442;28;20458;-67
2022/09/16 02:10:31;;;;;;;3.50;3.20;;;13.70;99.90;;;;;;5011473;28;20969;-67
2022/09/16 02:13:02;;;;;;;3.73;3.43;;;13.70;99.90;;;;;;5010832;28;20621;-67
2022/09/16 02:15:32;;;;;;;3.30;3.00;;;13.70;99.90;;;;;;5011557;28;20992;-67
2022/09/16 02:18:04;;;;;;;3.80;3.40;;;13.70;99.90;;;;;;5011476;28;21023;-66
2022/09/16 02:20:36;;;;;;;3.50;3.10;;;13.70;99.90;;;;;;5011363;28;20472;-67
2022/09/16 02:23:08;;;;;;;3.70;3.40;;;13.70;99.90;;;;;;5010962;28;20544;-67
2022/09/16 02:25:39;;;;;;;4.57;3.80;;;13.70;99.90;;;;;;5011128;28;20498;-67
2022/09/16 02:28:12;;;;;;;4.40;3.20;;;13.60;99.90;;;;;;5011587;28;20458;-67
2022/09/16 02:30:41;;;;;;;6.40;3.30;;;13.60;99.90;;;;;;5011072;28;20498;-66
2022/09/16 02:33:13;;;;;;;3.53;3.20;;;13.60;99.90;;;;;;5010829;28;20489;-67
2022/09/16 02:35:44;;;;;;;3.43;2.73;;;13.60;99.90;;;;;;5011442;28;20497;-67
2022/09/16 02:38:15;;;;;;;3.70;2.90;;;13.60;99.90;;;;;;5011076;28;20482;-67
2022/09/16 02:40:47;;;;;;;3.10;2.80;;;13.60;99.90;;;;;;5011278;28;20954;-67
2022/09/16 02:43:14;;;;;;;3.90;3.27;;;13.60;99.90;;;;;;5010091;28;20532;-66
2022/09/16 02:45:49;;;;;;;3.30;3.00;;;13.60;99.90;;;;;;5011327;28;20466;-67
2022/09/16 02:48:26;;;;;;;2.63;2.33;;;13.60;99.90;;;;;;5010824;28;20836;-67
2022/09/16 02:50:59;;;;;;;3.37;2.90;;;13.60;99.90;;;;;;5011047;28;20462;-67
2022/09/16 02:53:37;;;;;;;5.13;3.50;;;13.50;99.90;;;;;;5010108;28;20492;-67
2022/09/16 02:56:11;;;;;;;2.40;2.20;;;13.50;99.90;;;;;;5011024;28;20472;-67
2022/09/16 02:58:38;;;;;;;4.93;3.23;;;13.50;99.90;;;;;;5011078;28;20888;-67
2022/09/16 03:01:05;;;;;;;3.40;2.97;;;13.60;99.90;;;;;;5010781;28;20469;-67
2022/09/16 03:03:33;;;;;;;3.47;3.17;;;13.50;99.90;;;;;;5010747;28;20474;-67
2022/09/16 03:06:18;;;;;;;3.30;3.00;;;13.60;99.90;;;;;;5010899;28;20830;-66
2022/09/16 03:08:46;;;;;;;3.10;2.80;;;13.50;99.90;;;;;;5011344;28;20489;-67
2022/09/16 03:11:44;;;;;;;3.57;2.50;;;13.50;99.90;;;;;;5010177;28;20492;-66
2022/09/16 03:14:25;;;;;;;3.57;2.83;;;13.50;99.90;;;;;;4998926;28;20482;-67
2022/09/16 03:16:59;;;;;;;3.23;2.53;;;13.50;99.90;;;;;;5013360;28;20493;-66
2022/09/16 03:19:36;;;;;;;2.83;2.63;;;13.50;99.90;;;;;;5014542;28;20497;-66
2022/09/16 03:22:13;;;;;;;2.50;2.30;;;13.50;99.90;;;;;;5014320;28;21000;-67
2022/09/16 03:24:49;;;;;;;3.43;2.70;;;13.60;99.90;;;;;;5014389;28;20833;-67
2022/09/16 03:27:22;;;;;;;3.30;2.83;;;13.50;99.90;;;;;;5014744;28;20493;-67
2022/09/16 03:29:53;;;;;;;3.30;2.77;;;13.50;99.90;;;;;;5014418;28;20461;-67
2022/09/16 03:32:23;;;;;;;2.60;2.40;;;13.50;99.90;;;;;;5004279;28;20463;-67
2022/09/16 03:34:54;;;;;;;3.83;2.30;;;13.50;99.90;;;;;;5002188;28;20457;-67
2022/09/16 03:37:23;;;;;;;2.97;2.77;;;13.50;99.90;;;;;;5002703;28;20478;-67
2022/09/16 03:39:52;;;;;;;4.90;3.10;;;13.50;99.90;;;;;;5004234;28;20859;-67
2022/09/16 03:42:20;;;;;;;2.93;2.70;;;13.50;99.90;;;;;;5004419;28;20979;-67
2022/09/16 03:44:46;;;;;;;4.57;3.40;;;13.50;99.90;;;;;;5003972;28;20459;-67
2022/09/16 03:47:14;;;;;;;2.70;2.50;;;13.50;99.90;;;;;;5002274;28;20458;-67
2022/09/16 03:49:40;;;;;;;3.07;2.23;;;13.50;99.90;;;;;;5003301;28;20472;-67
2022/09/16 03:52:09;;;;;;;4.77;3.00;;;13.50;99.90;;;;;;5003922;28;20837;-67
2022/09/16 03:54:37;;;;;;;4.03;2.80;;;13.50;99.90;;;;;;5004838;28;20839;-67
2022/09/16 03:57:03;;;;;;;2.43;2.23;;;13.50;99.90;;;;;;4996381;28;20478;-67
2022/09/16 03:59:30;;;;;;;3.90;2.20;;;13.40;99.90;;;;;;4998633;28;21204;-67
2022/09/16 04:01:57;;;;;;;2.50;2.30;;;13.40;99.90;;;;;;5003443;28;20461;-66
2022/09/16 04:04:24;;;;;;;2.60;2.40;;;13.40;99.90;;;;;;5002312;28;20486;-66
2022/09/16 04:06:50;;;;;;;3.00;2.50;;;13.40;99.90;;;;;;5002601;28;20450;-66
2022/09/16 04:09:18;;;;;;;2.60;2.40;;;13.40;99.90;;;;;;5008959;28;20461;-67
2022/09/16 04:11:45;;;;;;;2.42;2.20;;;13.40;99.90;;;;;;5001580;28;20462;-67
2022/09/16 04:14:12;;;;;;;2.53;2.33;;;13.30;99.90;;;;;;5001913;28;20222;-67
2022/09/16 04:16:39;;;;;;;2.93;2.60;;;13.40;99.90;;;;;;5003454;28;20466;-67
2022/09/16 04:19:06;;;;;;;2.80;2.50;;;13.40;99.90;;;;;;5002476;28;20458;-66
2022/09/16 04:21:32;;;;;;;3.95;2.80;;;13.30;99.90;;;;;;5000531;28;20466;-66
2022/09/16 04:23:59;;;;;;;3.70;2.40;;;13.30;99.90;;;;;;5003518;28;20637;-67
2022/09/16 04:26:27;;;;;;;2.60;2.33;;;13.30;99.90;;;;;;5001325;28;20463;-66
2022/09/16 04:28:54;;;;;;;2.40;2.20;;;13.30;99.90;;;;;;4994508;28;20466;-66
2022/09/16 04:31:21;;;;;;;2.03;1.93;;;13.30;99.90;;;;;;4993946;28;20469;-66
2022/09/16 04:33:48;;;;;;;3.50;2.57;;;13.30;99.90;;;;;;4993807;28;20491;-66
2022/09/16 04:36:17;;;;;;;5.73;2.23;;;13.30;99.90;;;;;;4992943;28;20494;-66
2022/09/16 04:38:46;;;;;;;3.87;2.80;;;13.30;99.90;;;;;;4993709;28;20490;-66
2022/09/16 04:41:15;;;;;;;4.13;2.27;;;13.30;99.90;;;;;;4993000;28;20569;-66
2022/09/16 04:43:43;;;;;;;3.27;2.03;;;13.30;99.90;;;;;;4993775;28;20892;-66
2022/09/16 04:46:10;;;;;;;7.33;2.43;;;13.30;99.90;;;;;;4993459;28;20475;-66
2022/09/16 04:48:37;;;;;;;2.93;2.40;;;13.30;99.90;;;;;;4993508;28;20466;-66
2022/09/16 04:51:07;;;;;;;2.60;2.30;;;13.30;99.90;;;;;;4993573;28;20467;-66
2022/09/16 04:53:34;;;;;;;2.90;2.40;;;13.30;99.90;;;;;;4992897;28;20549;-66
2022/09/16 04:56:08;;;;;;;3.23;2.17;;;13.30;99.90;;;;;;4993436;28;20467;-66
2022/09/16 04:58:35;;;;;;;2.70;2.50;;;13.30;99.90;;;;;;4992868;28;20488;-66
2022/09/16 05:01:11;;;;;;;3.00;2.70;;;13.30;99.90;;;;;;4993450;28;20466;-66
2022/09/16 05:03:38;;;;;;;3.80;2.10;;;13.30;99.90;;;;;;4993166;28;20486;-66
2022/09/16 05:06:07;;;;;;;2.43;2.23;;;13.30;99.90;;;;;;4993297;28;20503;-66
2022/09/16 05:08:35;;;;;;;2.83;2.30;;;13.20;99.90;;;;;;4993094;28;20463;-67
2022/09/16 05:11:07;;;;;;;2.40;2.17;;;13.20;99.90;;;;;;4993157;28;20466;-66
2022/09/16 05:13:34;;;;;;;2.50;2.30;;;13.20;99.90;;;;;;4992655;28;20478;-67
2022/09/16 05:16:06;;;;;;;3.30;2.20;;;13.20;99.90;;;;;;4992856;28;20462;-66
2022/09/16 05:18:34;;;;;;;2.40;2.20;;;13.20;99.90;;;;;;4992800;28;20494;-66
2022/09/16 05:21:02;;;;;;;2.33;2.13;;;13.20;99.90;;;;;;4999048;28;20486;-67
2022/09/16 05:23:28;;;;;;;2.60;1.90;;;13.20;99.90;;;;;;5001232;28;20492;-66
2022/09/16 05:25:55;;;;;;;2.37;2.17;;;13.20;99.90;;;;;;5003928;28;20837;-67
2022/09/16 05:28:22;;;;;;;3.00;2.23;;;13.20;99.90;;;;;;5002355;28;21046;-67
2022/09/16 05:30:49;;;;;;;2.70;2.50;;;13.20;99.90;;;;;;5001763;28;20461;-66
2022/09/16 05:33:15;;;;;;;2.80;2.50;;;13.20;99.90;;;;;;5007507;28;20503;-66
2022/09/16 05:35:44;;;;;;;3.77;2.30;;;13.20;99.90;;;;;;5012484;28;20469;-66
2022/09/16 05:40:46;;;;;;;3.23;2.70;;;13.10;99.90;;;;;;5122448;22;20497;-67
2022/09/16 05:43:13;;;;;;;2.60;2.40;;;13.10;99.90;;;;;;5082444;28;20990;-67
2022/09/16 05:45:39;;;;;;;2.80;2.23;;;13.10;99.90;;;;;;5071567;28;20585;-67
2022/09/16 05:48:06;;;;;;;3.53;2.20;;;13.10;99.90;;;;;;5071855;28;20459;-67
2022/09/16 05:50:33;;;;;;;3.17;2.40;;;13.10;99.90;;;;;;5071115;28;20459;-67
2022/09/16 05:53:01;;;;;;;2.73;2.40;;;13.10;99.90;;;;;;5071095;28;20475;-67
2022/09/16 05:55:27;;;;;;;2.50;2.30;;;13.10;99.90;;;;;;5071002;28;20462;-67
2022/09/16 05:57:54;;;;;;;3.50;2.60;;;13.10;99.90;;;;;;5071440;28;20488;-67
2022/09/16 06:00:21;;;;;;;3.10;2.80;;;13.00;99.90;;;;;;5071339;28;20459;-67
2022/09/16 06:02:48;;;;;;;3.77;2.80;;;13.00;99.90;;;;;;5070395;28;20572;-67
2022/09/16 06:05:15;;;;;;;3.33;2.63;;;13.00;99.90;;;;;;5071357;28;20911;-67
2022/09/16 06:07:42;;;;;;;7.40;2.83;;;13.00;99.90;;;;;;5070817;28;20467;-67
2022/09/16 06:10:10;;;;;;;2.73;2.50;;;13.00;99.90;;;;;;5071278;28;20463;-67
2022/09/16 06:12:37;;;;;;;3.40;2.83;;;13.00;99.90;;;;;;5070194;28;20487;-67
2022/09/16 06:15:04;;;;;;;2.70;2.50;;;13.00;99.90;;;;;;5071152;28;20467;-67
2022/09/16 06:17:30;;;;;;;4.07;2.83;;;13.00;99.90;;;;;;5070990;28;20487;-67
2022/09/16 06:19:57;;;;;;;3.57;2.67;;;13.00;99.90;;;;;;5070646;28;20489;-67
2022/09/16 06:22:24;;;;;;;2.80;2.60;;;13.00;99.90;;;;;;5046469;28;20865;-67
2022/09/16 06:24:51;;;;;;;2.90;2.17;;;13.00;99.90;;;;;;5046665;28;20479;-67
2022/09/16 06:27:19;;;;;;;8.57;2.37;;;12.90;99.90;;;;;;5049015;28;21049;-67
2022/09/16 06:29:47;;;;;;;3.70;2.37;;;12.90;99.90;;;;;;5030129;28;20549;-67
2022/09/16 06:32:15;;;;;;;4.77;2.60;;;12.90;99.90;;;;;;5034498;28;20456;-67
2022/09/16 06:34:42;;;;;;;2.80;2.30;;;12.90;99.90;;;;;;5062701;28;20463;-67
2022/09/16 06:37:11;;;;;;;4.97;2.83;;;12.90;99.90;;;;;;5069731;28;20463;-67
2022/09/16 06:39:38;;;;;;;2.47;2.27;;;12.90;99.90;;;;;;5069859;28;20888;-67
2022/09/16 06:42:07;;;;;;;4.80;2.90;;;12.90;99.90;;;;;;5069486;28;20502;-67
2022/09/16 06:44:35;;;;;;;5.43;3.00;;;12.90;99.90;;;;;;5070092;28;20982;-67
2022/09/16 06:47:02;;;;;;;4.10;3.20;;;12.90;99.90;;;;;;5070018;28;20833;-67
2022/09/16 06:49:28;;;;;;;3.67;2.80;;;12.90;99.90;;;;;;5069294;28;20877;-67
2022/09/16 06:51:55;;;;;;;3.33;2.60;;;12.90;99.90;;;;;;5069625;28;20942;-67
2022/09/16 06:54:21;;;;;;;3.70;3.10;;;12.90;99.90;;;;;;5069809;28;20524;-67
2022/09/16 06:56:48;;;;;;;3.43;3.13;;;12.90;99.90;;;;;;5070229;28;21035;-67
2022/09/16 06:59:15;;;;;;;4.97;2.50;;;12.80;99.90;;;;;;5069754;28;20483;-67
2022/09/16 07:01:43;;;;;;;3.40;2.50;;;12.80;99.90;;;;;;5068194;28;21041;-67
2022/09/16 07:04:12;;;;;;;3.20;2.70;;;12.70;99.90;;;;;;5070180;28;21005;-67
2022/09/16 07:06:38;;;;;;;3.40;2.57;;;12.70;99.90;;;;;;5069638;28;20490;-67
2022/09/16 07:09:05;;;;;;;3.10;2.07;;;12.70;99.90;;;;;;5069979;28;20461;-67
2022/09/16 07:11:32;;;;;;;2.90;2.55;;;12.70;99.90;;;;;;5069191;28;20833;-67
2022/09/16 07:13:59;;;;;;;4.10;2.63;;;12.60;99.90;;;;;;5069500;28;20224;-67
2022/09/16 07:16:26;;;;;;;2.40;2.20;;;12.60;99.90;;;;;;5069312;28;20471;-67
2022/09/16 07:18:56;;;;;;;2.95;2.22;;;12.70;99.90;;;;;;5069815;28;20540;-67
2022/09/16 07:21:27;;;;;;;7.63;2.20;;;12.70;99.90;;;;;;5069351;28;20206;-67
2022/09/16 07:23:56;;;;;;;3.80;2.80;;;12.70;99.90;;;;;;5069313;28;21050;-67
2022/09/16 07:26:25;;;;;;;3.33;2.67;;;12.70;99.90;;;;;;5069413;28;20463;-67
2022/09/16 07:28:53;;;;;;;3.00;2.47;;;12.80;99.90;;;;;;5069974;28;20968;-67
2022/09/16 07:31:23;;;;;;;2.90;2.67;;;12.80;99.90;;;;;;5069518;28;20961;-67
2022/09/16 07:33:50;;;;;;;2.70;2.50;;;12.80;99.90;;;;;;5065253;28;20544;-66
2022/09/16 07:36:20;;;;;;;3.40;2.60;;;12.80;99.90;;;;;;5069015;28;20557;-67
2022/09/16 07:38:48;;;;;;;7.60;2.13;;;12.70;99.90;;;;;;5067930;28;20491;-67
2022/09/16 07:41:16;;;;;;;3.73;3.00;;;12.70;99.90;;;;;;5068314;28;20463;-67
2022/09/16 07:43:43;;;;;;;6.10;2.93;;;12.80;99.90;;;;;;5067863;28;21079;-66
2022/09/16 07:46:12;;;;;;;2.83;2.63;;;12.80;99.90;;;;;;5068089;28;20467;-67
2022/09/16 07:48:40;;;;;;;3.72;2.72;;;12.80;99.90;;;;;;5068518;28;20521;-67
2022/09/16 07:51:11;;;;;;;3.33;3.03;;;12.70;99.90;;;;;;5068267;28;20275;-67
2022/09/16 07:53:40;;;;;;;8.33;3.47;;;12.70;99.90;;;;;;5067968;28;20479;-67
2022/09/16 07:56:09;;;;;;;3.20;2.90;;;12.70;99.90;;;;;;5068866;28;20904;-67
2022/09/16 07:58:37;;;;;;;3.13;2.83;;;12.70;99.90;;;;;;5068131;28;20483;-67
2022/09/16 08:01:04;;;;;;;5.27;2.73;;;12.60;99.90;;;;;;5068438;28;20455;-67
2022/09/16 08:03:31;;;;;;;3.50;2.50;;;12.60;99.90;;;;;;5070049;28;20996;-67
2022/09/16 08:06:00;;;;;;;4.40;4.00;;;12.60;99.90;;;;;;5069058;28;20954;-67
2022/09/16 08:08:27;;;;;;;3.43;3.13;;;12.60;99.90;;;;;;5072845;28;20221;-67
2022/09/16 08:10:56;;;;;;;4.30;3.60;;;12.60;99.90;;;;;;5073442;28;20467;-67
2022/09/16 08:13:23;;;;;;;4.00;3.60;;;12.60;99.90;;;;;;5072232;28;20475;-67
2022/09/16 08:15:50;;;;;;;2.80;2.57;;;12.60;99.90;;;;;;5072300;28;20470;-67
2022/09/16 08:18:17;;;;;;;4.40;4.00;;;12.70;99.90;;;;;;5073222;28;20482;-67
2022/09/16 08:20:43;;;;;;;4.47;2.93;;;12.70;99.90;;;;;;5072342;28;20841;-67
2022/09/16 08:23:11;;;;;;;3.87;3.47;;;12.80;99.90;;;;;;5072158;28;20475;-67
2022/09/16 08:25:38;;;;;;;3.47;3.17;;;12.90;99.90;;;;;;5072389;28;20540;-67
2022/09/16 08:28:06;;;;;;;3.67;3.37;;;13.00;99.90;;;;;;5072250;28;20459;-67
2022/09/16 08:30:32;;;;;;;6.27;3.53;;;13.00;99.90;;;;;;5072872;28;20462;-67
2022/09/16 08:32:59;;;;;;;4.33;3.93;;;13.10;99.90;;;;;;5071631;28;20489;-67
2022/09/16 08:35:26;;;;;;;4.00;3.70;;;13.10;99.90;;;;;;5072317;28;20491;-67
2022/09/16 08:37:53;;;;;;;3.77;3.47;;;13.20;99.90;;;;;;5072453;28;20462;-67
2022/09/16 08:40:22;;;;;;;3.93;3.13;;;13.20;99.90;;;;;;5072257;28;20474;-67
2022/09/16 08:42:59;;;;;;;5.43;4.00;;;13.10;99.90;;;;;;5071122;28;20566;-67
2022/09/16 08:45:35;;;;;;;6.40;3.50;;;13.20;99.90;;;;;;5072520;28;20470;-67
2022/09/16 08:48:20;;;;;;;3.60;3.30;;;13.20;99.90;;;;;;5072564;28;20545;-67
2022/09/16 08:50:49;;;;;;;3.80;3.40;;;13.10;99.90;;;;;;5071693;28;20508;-67
2022/09/16 08:53:21;;;;;;;3.37;3.07;;;13.10;99.90;;;;;;5071199;28;20487;-67
2022/09/16 08:55:51;;;;;;;4.23;3.83;;;13.10;99.90;;;;;;5071938;28;20474;-67
2022/09/16 08:58:20;;;;;;;3.50;3.20;;;13.10;99.90;;;;;;5072092;28;20482;-67
2022/09/16 09:00:54;;;;;;;4.07;3.20;;;13.10;99.90;;;;;;5071855;28;20459;-67
2022/09/16 09:03:33;;;;;;;3.00;2.73;;;13.20;99.90;;;;;;5071080;28;20474;-67
2022/09/16 09:06:02;;;;;;;4.77;3.27;;;13.20;99.90;;;;;;5072150;28;20534;-68
2022/09/16 09:08:43;;;;;;;4.40;3.73;;;13.20;99.90;;;;;;5071736;28;20458;-68
2022/09/16 09:11:17;;;;;;;3.60;3.13;;;13.20;99.90;;;;;;5071933;28;20463;-67
2022/09/16 09:14:00;;;;;;;3.00;2.80;;;13.20;99.90;;;;;;5069954;28;20486;-68
2022/09/16 09:16:39;;;;;;;3.30;3.00;;;13.20;99.90;;;;;;5071225;28;20516;-67
2022/09/16 09:19:30;;;;;;;2.60;2.40;;;13.20;99.90;;;;;;5071515;28;20489;-67
2022/09/16 09:22:02;;;;;;;3.97;3.10;;;13.30;99.90;;;;;;5071259;28;20457;-67
2022/09/16 09:24:48;;;;;;;3.10;2.80;;;13.30;99.90;;;;;;5071677;28;20486;-67
2022/09/16 09:27:17;;;;;;;3.60;3.30;;;13.30;99.90;;;;;;5071258;28;20463;-67
2022/09/16 09:30:01;;;;;;;3.10;2.47;;;13.30;99.90;;;;;;5070863;28;20967;-67
2022/09/16 09:32:52;;;;;;;2.73;2.53;;;13.30;99.90;;;;;;5070416;28;20466;-67
2022/09/16 09:35:32;;;;;;;3.23;2.87;;;13.30;99.90;;;;;;5071502;28;20466;-67
2022/09/16 09:38:19;;;;;;;3.00;2.67;;;13.30;99.90;;;;;;5071502;28;20872;-67
2022/09/16 09:40:52;;;;;;;4.87;3.07;;;13.40;99.90;;;;;;5070492;28;20463;-67
2022/09/16 09:43:23;;;;;;;3.43;2.73;;;13.40;99.90;;;;;;5070651;28;20479;-67
2022/09/16 09:45:58;;;;;;;2.93;2.63;;;13.40;99.90;;;;;;5071569;28;20467;-68
2022/09/16 09:48:32;;;;;;;2.70;2.50;;;13.50;99.90;;;;;;5070916;28;20838;-67
2022/09/16 09:51:05;;;;;;;2.80;2.43;;;13.50;99.90;;;;;;5071577;28;20885;-67
2022/09/16 09:53:36;;;;;;;2.87;2.57;;;13.50;99.90;;;;;;5069804;28;20486;-67
2022/09/16 09:56:15;;;;;;;3.33;3.00;;;13.50;99.90;;;;;;5070767;28;20467;-67
2022/09/16 09:58:48;;;;;;;2.50;2.30;;;13.50;99.90;;;;;;5070903;28;20498;-68
2022/09/16 10:01:15;;;;;;;5.13;3.53;;;13.50;99.90;;;;;;5047867;28;21393;-67
2022/09/16 10:03:44;;;;;;;4.33;3.63;;;13.40;99.90;;;;;;5045754;28;20488;-67
2022/09/16 10:06:11;;;;;;;3.00;2.60;;;13.50;99.90;;;;;;5050626;28;20452;-67
2022/09/16 10:08:44;;;;;;;3.90;3.27;;;13.50;99.90;;;;;;5045905;28;20461;-67
2022/09/16 10:11:17;;;;;;;4.10;2.87;;;13.50;99.90;;;;;;5037739;28;21042;-67
2022/09/16 10:13:49;;;;;;;3.03;2.83;;;13.50;99.90;;;;;;5048434;28;20500;-67
2022/09/16 10:16:19;;;;;;;3.03;2.73;;;13.50;99.90;;;;;;5050990;28;20547;-67
2022/09/16 10:19:04;;;;;;;4.30;3.23;;;13.50;99.90;;;;;;5049646;28;20484;-67
2022/09/16 10:21:44;;;;;;;2.90;2.60;;;13.50;99.90;;;;;;5033602;28;20560;-67
2022/09/16 10:24:29;;;;;;;5.70;2.63;;;13.60;99.90;;;;;;5030433;28;20487;-67
2022/09/16 10:26:56;;;;;;;3.13;2.33;;;13.60;99.90;;;;;;5030637;28;20465;-67
2022/09/16 10:29:23;;;;;;;2.47;2.27;;;13.50;99.90;;;;;;5030336;28;20497;-67
2022/09/16 10:31:50;;;;;;;2.87;2.50;;;13.60;99.90;;;;;;5029728;28;20465;-67
2022/09/16 10:34:26;;;;;;;3.03;2.77;;;13.60;99.90;;;;;;5030403;28;20484;-67
2022/09/16 10:37:02;;;;;;;3.30;3.00;;;13.70;99.90;;;;;;5030403;28;20952;-67
2022/09/16 10:39:31;;;;;;;3.33;2.40;;;13.80;99.90;;;;;;5030357;28;20496;-67
2022/09/16 10:41:59;;;;;;;2.50;2.30;;;13.90;99.90;;;;;;5029175;28;20467;-67
2022/09/16 10:44:28;;;;;;;2.57;2.37;;;13.90;99.90;;;;;;5030241;28;20483;-67
2022/09/16 10:46:58;;;;;;;2.93;2.70;;;13.90;99.90;;;;;;5030839;28;20838;-67
2022/09/16 10:49:34;;;;;;;4.10;2.93;;;13.90;99.90;;;;;;5029805;28;20457;-67
2022/09/16 10:52:17;;;;;;;2.60;2.40;;;13.80;99.90;;;;;;5029800;28;20473;-67
2022/09/16 10:54:44;;;;;;;3.10;2.50;;;13.80;99.90;;;;;;5028275;28;20895;-67
2022/09/16 10:57:28;;;;;;;2.63;2.33;;;13.80;99.90;;;;;;5030443;28;20472;-67
2022/09/16 11:00:08;;;;;;;3.10;2.57;;;13.70;99.90;;;;;;5030112;28;20835;-67
2022/09/16 11:03:06;;;;;;;2.93;2.70;;;13.70;99.90;;;;;;5028741;28;20488;-68
2022/09/16 11:05:44;;;;;;;3.20;2.63;;;13.70;99.90;;;;;;5032207;28;20487;-68
2022/09/16 11:08:19;;;;;;;2.33;2.13;;;13.70;99.90;;;;;;5068899;28;20470;-68
2022/09/16 11:10:55;;;;;;;4.87;2.47;;;13.70;99.90;;;;;;5068699;28;20462;-68
2022/09/16 11:13:34;;;;;;;2.13;1.93;;;13.70;99.90;;;;;;5068447;28;20491;-68
2022/09/16 11:16:15;;;;;;;3.23;2.87;;;13.60;99.90;;;;;;5069115;28;20470;-68
2022/09/16 11:18:49;;;;;;;3.40;2.33;;;13.60;99.90;;;;;;5068513;28;20469;-67
2022/09/16 11:21:35;;;;;;;2.37;2.10;;;13.60;99.90;;;;;;5068876;28;20870;-68
2022/09/16 11:24:14;;;;;;;2.50;2.30;;;13.60;99.90;;;;;;5069225;28;20540;-68
2022/09/16 11:26:51;;;;;;;3.60;2.37;;;13.60;99.90;;;;;;5068095;28;20897;-67
2022/09/16 11:29:31;;;;;;;4.90;2.17;;;13.60;99.90;;;;;;5069668;28;20502;-68
2022/09/16 11:32:12;;;;;;;3.00;2.20;;;13.60;99.90;;;;;;5067431;28;20470;-68
2022/09/16 11:34:54;;;;;;;2.33;2.13;;;13.60;99.90;;;;;;5069067;28;20906;-68
2022/09/16 11:37:30;;;;;;;4.23;1.90;;;13.60;99.90;;;;;;5070296;28;20470;-68
2022/09/16 11:40:11;;;;;;;2.80;1.80;;;13.60;99.90;;;;;;5072485;28;20573;-68
2022/09/16 11:42:42;;;;;;;2.17;2.00;;;13.60;99.90;;;;;;5071522;28;20478;-68
2022/09/16 11:45:26;;;;;;;2.93;2.00;;;13.50;99.90;;;;;;5072831;28;20471;-68
2022/09/16 11:48:09;;;;;;;2.77;1.80;;;13.50;99.90;;;;;;5072597;28;20462;-68
2022/09/16 11:50:45;;;;;;;2.10;1.90;;;13.50;99.90;;;;;;5058102;28;20947;-67
2022/09/16 11:53:39;;;;;;;1.97;1.83;;;13.60;99.90;;;;;;5118602;23;20226;-68
2022/09/16 11:56:11;;;;;;;12.70;2.20;;;13.60;99.90;;;;;;5030453;28;20995;-68
2022/09/16 11:58:45;;;;;;;1.77;1.53;;;13.70;99.90;;;;;;5032941;28;20868;-68
2022/09/16 12:01:30;;;;;;;2.53;2.20;;;13.80;99.90;;;;;;5032722;28;20497;-68
2022/09/16 12:04:02;;;;;;;1.63;1.50;;;13.90;99.90;;;;;;5033086;28;20937;-68
2022/09/16 12:06:34;;;;;;;6.63;2.83;;;14.00;99.90;;;;;;5032922;28;20461;-68
2022/09/16 12:09:06;;;;;;;2.83;1.80;;;14.10;99.90;;;;;;5033101;28;20461;-68
2022/09/16 12:11:36;;;;;;;3.23;1.80;;;14.10;99.90;;;;;;5033135;28;20555;-67
2022/09/16 12:14:10;;;;;;;4.10;2.23;;;14.20;99.90;;;;;;5033572;28;20489;-67
2022/09/16 12:16:43;;;;;;;2.50;1.63;;;14.30;99.90;;;;;;5033065;28;20471;-68
2022/09/16 12:19:15;;;;;;;2.20;1.73;;;14.50;99.90;;;;;;5033256;28;20469;-67
2022/09/16 12:21:48;;;;;;;2.17;1.63;;;14.50;99.90;;;;;;5030123;28;20464;-68
2022/09/16 12:24:23;;;;;;;4.47;1.60;;;14.50;99.90;;;;;;5034047;28;20481;-68
2022/09/16 12:26:55;;;;;;;2.80;1.73;;;14.60;99.90;;;;;;5033629;28;20460;-68
2022/09/16 12:29:29;;;;;;;1.80;1.50;;;14.60;99.90;;;;;;5033887;28;20457;-68
2022/09/16 12:32:03;;;;;;;4.10;2.33;;;14.60;99.90;;;;;;5032749;28;20857;-67
2022/09/16 12:34:36;;;;;;;1.90;1.70;;;14.60;99.90;;;;;;5033458;28;20534;-68
2022/09/16 12:37:11;;;;;;;2.77;1.50;;;14.50;99.90;;;;;;5033308;28;20503;-67
2022/09/16 12:39:39;;;;;;;2.60;1.90;;;14.40;99.90;;;;;;5032957;28;20485;-67
2022/09/16 12:42:50;;;;;;;2.20;2.00;;;14.40;99.90;;;;;;5032461;28;20506;-68
2022/09/16 12:45:30;;;;;;;1.77;1.67;;;14.30;99.90;;;;;;5027882;28;20465;-68
2022/09/16 12:48:19;;;;;;;1.80;1.60;;;14.30;99.90;;;;;;5032860;28;20465;-67
2022/09/16 12:50:54;;;;;;;1.67;1.47;;;14.30;99.90;;;;;;5032912;28;20465;-68
2022/09/16 12:53:48;;;;;;;1.70;1.57;;;14.20;99.90;;;;;;5032441;28;20498;-68
2022/09/16 12:56:27;;;;;;;2.43;2.00;;;14.20;99.90;;;;;;5032598;28;20468;-67
2022/09/16 12:59:15;;;;;;;2.80;2.03;;;14.20;99.90;;;;;;5032811;28;20464;-68
2022/09/16 13:01:46;;;;;;;1.63;1.43;;;14.20;99.90;;;;;;5032198;28;20845;-68
2022/09/16 13:04:17;;;;;;;2.40;2.20;;;14.20;99.90;;;;;;5032735;28;20517;-67
2022/09/16 13:06:47;;;;;;;2.27;2.07;;;14.20;99.90;;;;;;5032645;28;20472;-68
2022/09/16 13:09:21;;;;;;;2.87;1.90;;;14.30;99.90;;;;;;5032837;28;20467;-67
2022/09/16 13:11:57;;;;;;;2.30;1.87;;;14.50;99.90;;;;;;5031832;28;20465;-68
2022/09/16 13:14:27;;;;;;;3.50;2.03;;;14.70;99.90;;;;;;5032956;28;20516;-68